sensor_id;sensor_type;location;lat;lon;timestamp;P1;durP1;ratioP1;P2;durP2;ratioP2
74904;SDS011;63465;50.862;6.220;2023-07-20T00:01:02;6.30;;;4.07;;
74904;SDS011;63465;50.862;6.220;2023-07-20T00:03:28;7.07;;;4.10;;
74904;SDS011;63465;50.862;6.220;2023-07-20T00:05:53;6.80;;;4.10;;
74904;SDS011;63465;50.862;6.220;2023-07-20T00:08:18;7.50;;;5.53;;
74904;SDS011;63465;50.862;6.220;2023-07-20T00:10:44;7.50;;;4.73;;
74904;SDS011;63465;50.862;6.220;2023-07-20T00:13:12;7.20;;;3.93;;
74904;SDS011;63465;50.862;6.220;2023-07-20T00:15:38;18.63;;;4.00;;
74904;SDS011;63465;50.862;6.220;2023-07-20T00:18:03;10.87;;;5.40;;
74904;SDS011;63465;50.862;6.220;2023-07-20T00:20:29;6.67;;;4.50;;
74904;SDS011;63465;50.862;6.220;2023-07-20T00:22:54;7.83;;;4.60;;
74904;SDS011;63465;50.862;6.220;2023-07-20T00:25:22;8.00;;;4.27;;
74904;SDS011;63465;50.862;6.220;2023-07-20T00:27:48;6.07;;;4.63;;
74904;SDS011;63465;50.862;6.220;2023-07-20T00:30:13;10.50;;;4.90;;
74904;SDS011;63465;50.862;6.220;2023-07-20T00:32:39;9.97;;;4.63;;
74904;SDS011;63465;50.862;6.220;2023-07-20T00:35:04;5.17;;;4.57;;
74904;SDS011;63465;50.862;6.220;2023-07-20T00:37:30;14.53;;;4.70;;
74904;SDS011;63465;50.862;6.220;2023-07-20T00:39:55;8.00;;;5.00;;
74904;SDS011;63465;50.862;6.220;2023-07-20T00:42:20;8.20;;;5.67;;
74904;SDS011;63465;50.862;6.220;2023-07-20T00:44:45;5.23;;;4.70;;
74904;SDS011;63465;50.862;6.220;2023-07-20T00:47:11;7.73;;;4.50;;
74904;SDS011;63465;50.862;6.220;2023-07-20T00:49:37;11.97;;;5.30;;
74904;SDS011;63465;50.862;6.220;2023-07-20T00:52:03;10.00;;;5.60;;
74904;SDS011;63465;50.862;6.220;2023-07-20T00:54:30;11.87;;;5.33;;
74904;SDS011;63465;50.862;6.220;2023-07-20T00:56:56;11.90;;;5.57;;
74904;SDS011;63465;50.862;6.220;2023-07-20T00:59:23;6.13;;;4.20;;
74904;SDS011;63465;50.862;6.220;2023-07-20T01:01:48;12.57;;;5.00;;
74904;SDS011;63465;50.862;6.220;2023-07-20T01:04:13;8.23;;;4.73;;
74904;SDS011;63465;50.862;6.220;2023-07-20T01:09:21;7.17;;;5.00;;
74904;SDS011;63465;50.862;6.220;2023-07-20T01:14:30;8.70;;;4.67;;
74904;SDS011;63465;50.862;6.220;2023-07-20T01:16:57;11.70;;;5.13;;
74904;SDS011;63465;50.862;6.220;2023-07-20T01:19:22;7.70;;;4.67;;
74904;SDS011;63465;50.862;6.220;2023-07-20T01:21:50;6.93;;;4.47;;
74904;SDS011;63465;50.862;6.220;2023-07-20T01:32:52;12.10;;;4.50;;
74904;SDS011;63465;50.862;6.220;2023-07-20T01:35:20;8.10;;;4.90;;
74904;SDS011;63465;50.862;6.220;2023-07-20T01:37:51;7.07;;;4.60;;
74904;SDS011;63465;50.862;6.220;2023-07-20T01:40:18;8.00;;;5.10;;
74904;SDS011;63465;50.862;6.220;2023-07-20T01:42:47;10.50;;;4.93;;
74904;SDS011;63465;50.862;6.220;2023-07-20T01:45:13;9.33;;;3.87;;
74904;SDS011;63465;50.862;6.220;2023-07-20T01:47:39;10.23;;;4.30;;
74904;SDS011;63465;50.862;6.220;2023-07-20T01:50:05;6.97;;;4.30;;
74904;SDS011;63465;50.862;6.220;2023-07-20T01:52:31;5.43;;;4.57;;
74904;SDS011;63465;50.862;6.220;2023-07-20T01:54:56;6.13;;;4.00;;
74904;SDS011;63465;50.862;6.220;2023-07-20T01:57:22;8.07;;;4.90;;
74904;SDS011;63465;50.862;6.220;2023-07-20T01:59:47;10.20;;;4.53;;
74904;SDS011;63465;50.862;6.220;2023-07-20T02:02:12;6.40;;;4.27;;
74904;SDS011;63465;50.862;6.220;2023-07-20T02:04:38;4.80;;;3.40;;
74904;SDS011;63465;50.862;6.220;2023-07-20T02:07:03;8.13;;;4.50;;
74904;SDS011;63465;50.862;6.220;2023-07-20T02:09:28;7.50;;;4.37;;
74904;SDS011;63465;50.862;6.220;2023-07-20T02:11:54;5.27;;;4.13;;
74904;SDS011;63465;50.862;6.220;2023-07-20T02:14:19;5.07;;;3.73;;
74904;SDS011;63465;50.862;6.220;2023-07-20T02:16:44;8.73;;;3.80;;
74904;SDS011;63465;50.862;6.220;2023-07-20T02:19:10;5.73;;;3.70;;
74904;SDS011;63465;50.862;6.220;2023-07-20T02:21:35;6.40;;;3.93;;
74904;SDS011;63465;50.862;6.220;2023-07-20T02:24:01;8.47;;;4.10;;
74904;SDS011;63465;50.862;6.220;2023-07-20T02:26:26;11.67;;;4.00;;
74904;SDS011;63465;50.862;6.220;2023-07-20T02:28:51;3.80;;;3.10;;
74904;SDS011;63465;50.862;6.220;2023-07-20T02:31:16;5.07;;;3.97;;
74904;SDS011;63465;50.862;6.220;2023-07-20T02:33:42;9.80;;;4.30;;
74904;SDS011;63465;50.862;6.220;2023-07-20T02:36:07;4.97;;;3.63;;
74904;SDS011;63465;50.862;6.220;2023-07-20T02:38:32;5.33;;;3.30;;
74904;SDS011;63465;50.862;6.220;2023-07-20T02:40:57;9.17;;;3.30;;
74904;SDS011;63465;50.862;6.220;2023-07-20T02:43:23;4.33;;;3.30;;
74904;SDS011;63465;50.862;6.220;2023-07-20T02:45:49;7.57;;;3.37;;
74904;SDS011;63465;50.862;6.220;2023-07-20T02:48:15;5.20;;;3.93;;
74904;SDS011;63465;50.862;6.220;2023-07-20T02:50:40;6.50;;;3.30;;
74904;SDS011;63465;50.862;6.220;2023-07-20T02:53:05;4.57;;;3.57;;
74904;SDS011;63465;50.862;6.220;2023-07-20T02:55:30;4.30;;;3.50;;
74904;SDS011;63465;50.862;6.220;2023-07-20T02:57:56;5.07;;;3.60;;
74904;SDS011;63465;50.862;6.220;2023-07-20T03:00:21;3.50;;;3.20;;
74904;SDS011;63465;50.862;6.220;2023-07-20T03:02:48;6.97;;;4.00;;
74904;SDS011;63465;50.862;6.220;2023-07-20T03:05:14;10.13;;;3.60;;
74904;SDS011;63465;50.862;6.220;2023-07-20T03:07:40;8.53;;;3.77;;
74904;SDS011;63465;50.862;6.220;2023-07-20T03:10:07;7.57;;;3.63;;
74904;SDS011;63465;50.862;6.220;2023-07-20T03:12:34;7.60;;;3.87;;
74904;SDS011;63465;50.862;6.220;2023-07-20T03:14:59;10.03;;;3.97;;
74904;SDS011;63465;50.862;6.220;2023-07-20T03:17:24;8.27;;;3.47;;
74904;SDS011;63465;50.862;6.220;2023-07-20T03:19:49;11.13;;;3.37;;
74904;SDS011;63465;50.862;6.220;2023-07-20T03:22:15;8.03;;;4.20;;
74904;SDS011;63465;50.862;6.220;2023-07-20T03:24:40;15.30;;;3.50;;
74904;SDS011;63465;50.862;6.220;2023-07-20T03:27:05;13.17;;;4.40;;
74904;SDS011;63465;50.862;6.220;2023-07-20T03:29:32;5.87;;;4.00;;
74904;SDS011;63465;50.862;6.220;2023-07-20T03:31:58;12.03;;;3.57;;
74904;SDS011;63465;50.862;6.220;2023-07-20T03:34:24;7.90;;;4.03;;
74904;SDS011;63465;50.862;6.220;2023-07-20T03:36:49;9.80;;;3.73;;
74904;SDS011;63465;50.862;6.220;2023-07-20T03:39:15;5.30;;;3.97;;
74904;SDS011;63465;50.862;6.220;2023-07-20T03:41:40;7.97;;;4.40;;
74904;SDS011;63465;50.862;6.220;2023-07-20T03:44:05;6.23;;;4.40;;
74904;SDS011;63465;50.862;6.220;2023-07-20T03:46:30;12.37;;;4.67;;
74904;SDS011;63465;50.862;6.220;2023-07-20T03:48:56;5.80;;;4.30;;
74904;SDS011;63465;50.862;6.220;2023-07-20T03:51:21;9.20;;;4.30;;
74904;SDS011;63465;50.862;6.220;2023-07-20T03:53:46;12.97;;;4.23;;
74904;SDS011;63465;50.862;6.220;2023-07-20T03:56:12;14.10;;;4.70;;
74904;SDS011;63465;50.862;6.220;2023-07-20T03:58:37;7.33;;;4.07;;
74904;SDS011;63465;50.862;6.220;2023-07-20T04:01:02;8.97;;;4.47;;
74904;SDS011;63465;50.862;6.220;2023-07-20T04:03:28;9.43;;;4.03;;
74904;SDS011;63465;50.862;6.220;2023-07-20T04:05:54;9.20;;;3.97;;
74904;SDS011;63465;50.862;6.220;2023-07-20T04:08:23;8.80;;;4.93;;
74904;SDS011;63465;50.862;6.220;2023-07-20T04:10:49;8.70;;;4.77;;
74904;SDS011;63465;50.862;6.220;2023-07-20T04:13:14;13.80;;;5.53;;
74904;SDS011;63465;50.862;6.220;2023-07-20T04:15:40;13.27;;;4.63;;
74904;SDS011;63465;50.862;6.220;2023-07-20T04:18:05;11.50;;;4.93;;
74904;SDS011;63465;50.862;6.220;2023-07-20T04:20:31;15.40;;;5.60;;
74904;SDS011;63465;50.862;6.220;2023-07-20T04:22:56;14.13;;;5.30;;
74904;SDS011;63465;50.862;6.220;2023-07-20T04:25:21;6.87;;;3.87;;
74904;SDS011;63465;50.862;6.220;2023-07-20T04:27:46;10.00;;;4.77;;
74904;SDS011;63465;50.862;6.220;2023-07-20T04:30:12;12.37;;;5.10;;
74904;SDS011;63465;50.862;6.220;2023-07-20T04:32:38;11.23;;;5.50;;
74904;SDS011;63465;50.862;6.220;2023-07-20T04:35:10;10.97;;;5.37;;
74904;SDS011;63465;50.862;6.220;2023-07-20T04:37:36;13.83;;;5.30;;
74904;SDS011;63465;50.862;6.220;2023-07-20T04:40:01;11.40;;;5.50;;
74904;SDS011;63465;50.862;6.220;2023-07-20T04:42:28;12.90;;;5.30;;
74904;SDS011;63465;50.862;6.220;2023-07-20T04:44:53;12.87;;;5.43;;
74904;SDS011;63465;50.862;6.220;2023-07-20T04:47:18;24.57;;;5.23;;
74904;SDS011;63465;50.862;6.220;2023-07-20T04:49:44;15.80;;;5.97;;
74904;SDS011;63465;50.862;6.220;2023-07-20T04:52:09;12.87;;;5.70;;
74904;SDS011;63465;50.862;6.220;2023-07-20T04:54:34;14.37;;;5.63;;
74904;SDS011;63465;50.862;6.220;2023-07-20T04:56:59;14.50;;;6.03;;
74904;SDS011;63465;50.862;6.220;2023-07-20T04:59:25;13.10;;;6.30;;
74904;SDS011;63465;50.862;6.220;2023-07-20T05:01:50;18.10;;;7.17;;
74904;SDS011;63465;50.862;6.220;2023-07-20T05:04:15;14.47;;;6.87;;
74904;SDS011;63465;50.862;6.220;2023-07-20T05:06:41;10.70;;;5.70;;
74904;SDS011;63465;50.862;6.220;2023-07-20T05:09:06;10.10;;;5.87;;
74904;SDS011;63465;50.862;6.220;2023-07-20T05:11:34;17.33;;;6.37;;
74904;SDS011;63465;50.862;6.220;2023-07-20T05:13:59;10.23;;;5.97;;
74904;SDS011;63465;50.862;6.220;2023-07-20T05:16:25;14.40;;;5.97;;
74904;SDS011;63465;50.862;6.220;2023-07-20T05:18:50;12.53;;;6.10;;
74904;SDS011;63465;50.862;6.220;2023-07-20T05:21:16;12.50;;;7.00;;
74904;SDS011;63465;50.862;6.220;2023-07-20T05:23:41;13.20;;;6.10;;
74904;SDS011;63465;50.862;6.220;2023-07-20T05:26:06;14.43;;;6.80;;
74904;SDS011;63465;50.862;6.220;2023-07-20T05:28:32;11.20;;;6.40;;
74904;SDS011;63465;50.862;6.220;2023-07-20T05:30:57;16.90;;;6.00;;
74904;SDS011;63465;50.862;6.220;2023-07-20T05:33:24;17.17;;;6.80;;
74904;SDS011;63465;50.862;6.220;2023-07-20T05:35:49;12.40;;;7.13;;
74904;SDS011;63465;50.862;6.220;2023-07-20T05:38:15;18.83;;;7.17;;
74904;SDS011;63465;50.862;6.220;2023-07-20T05:40:41;13.53;;;7.20;;
74904;SDS011;63465;50.862;6.220;2023-07-20T05:43:07;15.13;;;7.53;;
74904;SDS011;63465;50.862;6.220;2023-07-20T05:45:33;12.47;;;6.60;;
74904;SDS011;63465;50.862;6.220;2023-07-20T05:47:58;19.43;;;7.07;;
74904;SDS011;63465;50.862;6.220;2023-07-20T05:50:23;14.90;;;7.40;;
74904;SDS011;63465;50.862;6.220;2023-07-20T05:52:49;14.03;;;7.00;;
74904;SDS011;63465;50.862;6.220;2023-07-20T05:55:14;14.93;;;6.97;;
74904;SDS011;63465;50.862;6.220;2023-07-20T05:57:39;17.10;;;8.20;;
74904;SDS011;63465;50.862;6.220;2023-07-20T06:00:07;14.43;;;7.43;;
74904;SDS011;63465;50.862;6.220;2023-07-20T06:02:33;14.37;;;8.23;;
74904;SDS011;63465;50.862;6.220;2023-07-20T06:04:58;11.53;;;8.10;;
74904;SDS011;63465;50.862;6.220;2023-07-20T06:07:24;21.93;;;9.53;;
74904;SDS011;63465;50.862;6.220;2023-07-20T06:09:49;18.53;;;8.73;;
74904;SDS011;63465;50.862;6.220;2023-07-20T06:12:14;14.27;;;9.10;;
74904;SDS011;63465;50.862;6.220;2023-07-20T06:14:40;15.20;;;9.07;;
74904;SDS011;63465;50.862;6.220;2023-07-20T06:17:05;14.80;;;8.60;;
74904;SDS011;63465;50.862;6.220;2023-07-20T06:19:30;17.30;;;8.80;;
74904;SDS011;63465;50.862;6.220;2023-07-20T06:21:55;14.17;;;8.17;;
74904;SDS011;63465;50.862;6.220;2023-07-20T06:24:21;12.10;;;8.73;;
74904;SDS011;63465;50.862;6.220;2023-07-20T06:26:46;17.80;;;8.97;;
74904;SDS011;63465;50.862;6.220;2023-07-20T06:29:11;17.03;;;9.07;;
74904;SDS011;63465;50.862;6.220;2023-07-20T06:31:37;15.77;;;8.10;;
74904;SDS011;63465;50.862;6.220;2023-07-20T06:34:02;17.43;;;8.57;;
74904;SDS011;63465;50.862;6.220;2023-07-20T06:36:28;13.67;;;8.17;;
74904;SDS011;63465;50.862;6.220;2023-07-20T06:38:53;14.67;;;9.80;;
74904;SDS011;63465;50.862;6.220;2023-07-20T06:41:19;19.90;;;9.27;;
74904;SDS011;63465;50.862;6.220;2023-07-20T06:43:44;16.60;;;8.27;;
74904;SDS011;63465;50.862;6.220;2023-07-20T06:46:10;15.10;;;8.37;;
74904;SDS011;63465;50.862;6.220;2023-07-20T06:48:35;12.20;;;8.40;;
74904;SDS011;63465;50.862;6.220;2023-07-20T06:51:00;11.80;;;7.87;;
74904;SDS011;63465;50.862;6.220;2023-07-20T06:53:26;12.50;;;8.80;;
74904;SDS011;63465;50.862;6.220;2023-07-20T06:55:51;14.00;;;9.70;;
74904;SDS011;63465;50.862;6.220;2023-07-20T06:58:16;15.80;;;9.20;;
74904;SDS011;63465;50.862;6.220;2023-07-20T07:00:42;12.63;;;8.73;;
74904;SDS011;63465;50.862;6.220;2023-07-20T07:03:08;22.33;;;9.20;;
74904;SDS011;63465;50.862;6.220;2023-07-20T07:05:36;17.93;;;9.10;;
74904;SDS011;63465;50.862;6.220;2023-07-20T07:08:02;18.50;;;9.00;;
74904;SDS011;63465;50.862;6.220;2023-07-20T07:10:29;15.80;;;8.87;;
74904;SDS011;63465;50.862;6.220;2023-07-20T07:12:54;11.90;;;8.33;;
74904;SDS011;63465;50.862;6.220;2023-07-20T07:15:19;15.87;;;8.83;;
74904;SDS011;63465;50.862;6.220;2023-07-20T07:17:44;12.73;;;8.20;;
74904;SDS011;63465;50.862;6.220;2023-07-20T07:20:10;12.00;;;7.97;;
74904;SDS011;63465;50.862;6.220;2023-07-20T07:22:35;14.53;;;8.57;;
74904;SDS011;63465;50.862;6.220;2023-07-20T07:25:01;10.03;;;7.90;;
74904;SDS011;63465;50.862;6.220;2023-07-20T07:27:26;8.27;;;6.53;;
74904;SDS011;63465;50.862;6.220;2023-07-20T07:29:51;15.20;;;6.23;;
74904;SDS011;63465;50.862;6.220;2023-07-20T07:32:16;14.03;;;6.43;;
74904;SDS011;63465;50.862;6.220;2023-07-20T07:34:43;7.33;;;6.40;;
74904;SDS011;63465;50.862;6.220;2023-07-20T07:37:11;13.17;;;6.47;;
74904;SDS011;63465;50.862;6.220;2023-07-20T07:39:36;7.37;;;5.40;;
74904;SDS011;63465;50.862;6.220;2023-07-20T07:42:01;7.30;;;4.93;;
74904;SDS011;63465;50.862;6.220;2023-07-20T07:44:27;10.30;;;5.80;;
74904;SDS011;63465;50.862;6.220;2023-07-20T07:46:52;11.90;;;6.70;;
74904;SDS011;63465;50.862;6.220;2023-07-20T07:49:18;8.80;;;5.77;;
74904;SDS011;63465;50.862;6.220;2023-07-20T07:51:44;8.87;;;5.60;;
74904;SDS011;63465;50.862;6.220;2023-07-20T07:54:09;11.60;;;5.40;;
74904;SDS011;63465;50.862;6.220;2023-07-20T07:56:35;5.73;;;4.70;;
74904;SDS011;63465;50.862;6.220;2023-07-20T07:59:00;7.03;;;6.20;;
74904;SDS011;63465;50.862;6.220;2023-07-20T08:01:25;9.40;;;5.60;;
74904;SDS011;63465;50.862;6.220;2023-07-20T08:03:51;7.20;;;5.70;;
74904;SDS011;63465;50.862;6.220;2023-07-20T08:06:16;7.00;;;5.00;;
74904;SDS011;63465;50.862;6.220;2023-07-20T08:08:42;5.70;;;4.70;;
74904;SDS011;63465;50.862;6.220;2023-07-20T08:11:07;7.00;;;5.27;;
74904;SDS011;63465;50.862;6.220;2023-07-20T08:13:33;4.27;;;3.90;;
74904;SDS011;63465;50.862;6.220;2023-07-20T08:15:58;4.57;;;3.60;;
74904;SDS011;63465;50.862;6.220;2023-07-20T08:18:23;3.77;;;2.87;;
74904;SDS011;63465;50.862;6.220;2023-07-20T08:20:49;5.40;;;3.57;;
74904;SDS011;63465;50.862;6.220;2023-07-20T08:23:14;4.90;;;4.03;;
74904;SDS011;63465;50.862;6.220;2023-07-20T08:25:40;5.53;;;4.60;;
74904;SDS011;63465;50.862;6.220;2023-07-20T08:28:08;8.23;;;5.13;;
74904;SDS011;63465;50.862;6.220;2023-07-20T08:30:41;6.10;;;4.27;;
74904;SDS011;63465;50.862;6.220;2023-07-20T08:33:07;5.00;;;3.63;;
74904;SDS011;63465;50.862;6.220;2023-07-20T08:35:33;6.73;;;3.37;;
74904;SDS011;63465;50.862;6.220;2023-07-20T08:37:58;3.37;;;3.07;;
74904;SDS011;63465;50.862;6.220;2023-07-20T08:40:24;4.93;;;3.53;;
74904;SDS011;63465;50.862;6.220;2023-07-20T08:42:49;5.10;;;4.10;;
74904;SDS011;63465;50.862;6.220;2023-07-20T08:45:15;6.90;;;3.50;;
74904;SDS011;63465;50.862;6.220;2023-07-20T08:47:43;4.50;;;2.77;;
74904;SDS011;63465;50.862;6.220;2023-07-20T08:50:10;6.50;;;2.63;;
74904;SDS011;63465;50.862;6.220;2023-07-20T08:52:36;2.97;;;2.60;;
74904;SDS011;63465;50.862;6.220;2023-07-20T08:55:02;1.83;;;1.70;;
74904;SDS011;63465;50.862;6.220;2023-07-20T08:57:31;2.63;;;2.43;;
74904;SDS011;63465;50.862;6.220;2023-07-20T08:59:59;5.00;;;2.97;;
74904;SDS011;63465;50.862;6.220;2023-07-20T09:02:26;5.50;;;3.03;;
74904;SDS011;63465;50.862;6.220;2023-07-20T09:04:52;3.63;;;2.93;;
74904;SDS011;63465;50.862;6.220;2023-07-20T09:07:17;5.07;;;2.47;;
74904;SDS011;63465;50.862;6.220;2023-07-20T09:09:45;3.07;;;2.50;;
74904;SDS011;63465;50.862;6.220;2023-07-20T09:12:14;2.47;;;2.30;;
74904;SDS011;63465;50.862;6.220;2023-07-20T09:14:42;2.57;;;2.40;;
74904;SDS011;63465;50.862;6.220;2023-07-20T09:17:08;2.33;;;2.23;;
74904;SDS011;63465;50.862;6.220;2023-07-20T09:19:38;4.90;;;3.10;;
74904;SDS011;63465;50.862;6.220;2023-07-20T09:22:03;3.13;;;2.83;;
74904;SDS011;63465;50.862;6.220;2023-07-20T09:24:30;2.60;;;2.40;;
74904;SDS011;63465;50.862;6.220;2023-07-20T09:26:57;4.23;;;2.30;;
74904;SDS011;63465;50.862;6.220;2023-07-20T09:29:29;3.77;;;2.20;;
74904;SDS011;63465;50.862;6.220;2023-07-20T09:32:04;2.87;;;2.30;;
74904;SDS011;63465;50.862;6.220;2023-07-20T09:34:30;3.47;;;2.70;;
74904;SDS011;63465;50.862;6.220;2023-07-20T09:36:59;3.07;;;2.70;;
74904;SDS011;63465;50.862;6.220;2023-07-20T09:39:25;3.07;;;2.20;;
74904;SDS011;63465;50.862;6.220;2023-07-20T09:41:51;2.67;;;2.47;;
74904;SDS011;63465;50.862;6.220;2023-07-20T09:44:16;2.73;;;2.40;;
74904;SDS011;63465;50.862;6.220;2023-07-20T09:46:49;3.07;;;2.77;;
74904;SDS011;63465;50.862;6.220;2023-07-20T09:49:16;9.20;;;2.30;;
74904;SDS011;63465;50.862;6.220;2023-07-20T09:51:43;3.27;;;2.40;;
74904;SDS011;63465;50.862;6.220;2023-07-20T09:54:10;4.47;;;2.40;;
74904;SDS011;63465;50.862;6.220;2023-07-20T09:56:38;2.70;;;2.50;;
74904;SDS011;63465;50.862;6.220;2023-07-20T09:59:04;2.80;;;2.60;;
74904;SDS011;63465;50.862;6.220;2023-07-20T10:01:30;3.00;;;2.80;;
74904;SDS011;63465;50.862;6.220;2023-07-20T10:03:58;2.90;;;2.70;;
74904;SDS011;63465;50.862;6.220;2023-07-20T10:06:26;2.50;;;2.27;;
74904;SDS011;63465;50.862;6.220;2023-07-20T10:08:56;2.70;;;2.23;;
74904;SDS011;63465;50.862;6.220;2023-07-20T10:11:26;2.47;;;2.37;;
74904;SDS011;63465;50.862;6.220;2023-07-20T10:13:55;3.90;;;2.40;;
74904;SDS011;63465;50.862;6.220;2023-07-20T10:16:36;2.47;;;2.37;;
74904;SDS011;63465;50.862;6.220;2023-07-20T10:19:22;2.40;;;2.30;;
74904;SDS011;63465;50.862;6.220;2023-07-20T10:21:51;2.37;;;2.20;;
74904;SDS011;63465;50.862;6.220;2023-07-20T10:24:25;3.13;;;2.87;;
74904;SDS011;63465;50.862;6.220;2023-07-20T10:26:51;2.70;;;2.50;;
74904;SDS011;63465;50.862;6.220;2023-07-20T10:29:16;2.73;;;2.53;;
74904;SDS011;63465;50.862;6.220;2023-07-20T10:31:42;4.27;;;2.30;;
74904;SDS011;63465;50.862;6.220;2023-07-20T10:34:08;2.97;;;2.70;;
74904;SDS011;63465;50.862;6.220;2023-07-20T10:36:34;2.77;;;2.50;;
74904;SDS011;63465;50.862;6.220;2023-07-20T10:39:26;2.90;;;2.60;;
74904;SDS011;63465;50.862;6.220;2023-07-20T10:42:01;2.53;;;2.33;;
74904;SDS011;63465;50.862;6.220;2023-07-20T10:44:28;3.20;;;2.90;;
74904;SDS011;63465;50.862;6.220;2023-07-20T10:46:58;2.77;;;2.47;;
74904;SDS011;63465;50.862;6.220;2023-07-20T10:49:25;3.90;;;2.40;;
74904;SDS011;63465;50.862;6.220;2023-07-20T10:51:58;3.03;;;2.70;;
74904;SDS011;63465;50.862;6.220;2023-07-20T10:56:52;2.90;;;2.60;;
74904;SDS011;63465;50.862;6.220;2023-07-20T10:59:41;2.30;;;2.20;;
74904;SDS011;63465;50.862;6.220;2023-07-20T11:02:06;3.20;;;2.90;;
74904;SDS011;63465;50.862;6.220;2023-07-20T11:04:42;2.67;;;2.47;;
74904;SDS011;63465;50.862;6.220;2023-07-20T11:07:09;2.53;;;2.33;;
74904;SDS011;63465;50.862;6.220;2023-07-20T11:09:34;2.33;;;2.17;;
74904;SDS011;63465;50.862;6.220;2023-07-20T11:12:13;2.50;;;2.30;;
74904;SDS011;63465;50.862;6.220;2023-07-20T11:14:58;2.67;;;2.47;;
74904;SDS011;63465;50.862;6.220;2023-07-20T11:17:30;2.47;;;2.27;;
74904;SDS011;63465;50.862;6.220;2023-07-20T11:19:57;2.60;;;2.10;;
74904;SDS011;63465;50.862;6.220;2023-07-20T11:22:25;2.30;;;2.20;;
74904;SDS011;63465;50.862;6.220;2023-07-20T11:24:54;4.87;;;2.77;;
74904;SDS011;63465;50.862;6.220;2023-07-20T11:27:20;3.63;;;2.50;;
74904;SDS011;63465;50.862;6.220;2023-07-20T11:29:47;3.13;;;2.77;;
74904;SDS011;63465;50.862;6.220;2023-07-20T11:32:19;2.83;;;2.50;;
74904;SDS011;63465;50.862;6.220;2023-07-20T11:34:46;2.50;;;2.40;;
74904;SDS011;63465;50.862;6.220;2023-07-20T11:37:12;2.77;;;2.40;;
74904;SDS011;63465;50.862;6.220;2023-07-20T11:39:37;3.90;;;2.60;;
74904;SDS011;63465;50.862;6.220;2023-07-20T11:42:03;4.00;;;2.23;;
74904;SDS011;63465;50.862;6.220;2023-07-20T11:44:30;2.57;;;2.40;;
74904;SDS011;63465;50.862;6.220;2023-07-20T11:46:59;3.03;;;2.70;;
74904;SDS011;63465;50.862;6.220;2023-07-20T11:49:41;2.60;;;2.40;;
74904;SDS011;63465;50.862;6.220;2023-07-20T11:52:13;2.83;;;2.63;;
74904;SDS011;63465;50.862;6.220;2023-07-20T11:54:40;2.80;;;2.60;;
74904;SDS011;63465;50.862;6.220;2023-07-20T11:57:06;4.00;;;2.43;;
74904;SDS011;63465;50.862;6.220;2023-07-20T11:59:32;4.37;;;2.63;;
74904;SDS011;63465;50.862;6.220;2023-07-20T12:01:58;2.73;;;2.50;;
74904;SDS011;63465;50.862;6.220;2023-07-20T12:04:26;4.00;;;2.90;;
74904;SDS011;63465;50.862;6.220;2023-07-20T12:06:52;2.70;;;2.50;;
74904;SDS011;63465;50.862;6.220;2023-07-20T12:09:18;2.80;;;2.60;;
74904;SDS011;63465;50.862;6.220;2023-07-20T12:11:44;2.40;;;2.10;;
74904;SDS011;63465;50.862;6.220;2023-07-20T12:14:12;2.57;;;2.37;;
74904;SDS011;63465;50.862;6.220;2023-07-20T12:16:38;3.47;;;3.17;;
74904;SDS011;63465;50.862;6.220;2023-07-20T12:19:07;2.37;;;2.27;;
74904;SDS011;63465;50.862;6.220;2023-07-20T12:21:34;5.80;;;2.30;;
74904;SDS011;63465;50.862;6.220;2023-07-20T12:24:04;2.40;;;2.20;;
74904;SDS011;63465;50.862;6.220;2023-07-20T12:26:30;3.07;;;2.00;;
74904;SDS011;63465;50.862;6.220;2023-07-20T12:28:56;7.07;;;2.50;;
74904;SDS011;63465;50.862;6.220;2023-07-20T12:31:22;2.53;;;2.33;;
74904;SDS011;63465;50.862;6.220;2023-07-20T12:33:49;3.47;;;2.13;;
74904;SDS011;63465;50.862;6.220;2023-07-20T12:36:15;2.60;;;2.03;;
74904;SDS011;63465;50.862;6.220;2023-07-20T12:38:40;5.23;;;2.27;;
74904;SDS011;63465;50.862;6.220;2023-07-20T12:41:07;1.90;;;1.77;;
74904;SDS011;63465;50.862;6.220;2023-07-20T12:43:32;2.13;;;2.03;;
74904;SDS011;63465;50.862;6.220;2023-07-20T12:45:58;1.97;;;1.87;;
74904;SDS011;63465;50.862;6.220;2023-07-20T12:48:24;1.80;;;1.70;;
74904;SDS011;63465;50.862;6.220;2023-07-20T12:50:49;2.97;;;1.93;;
74904;SDS011;63465;50.862;6.220;2023-07-20T12:53:15;1.83;;;1.73;;
74904;SDS011;63465;50.862;6.220;2023-07-20T12:55:40;2.00;;;1.90;;
74904;SDS011;63465;50.862;6.220;2023-07-20T12:58:06;2.73;;;2.00;;
74904;SDS011;63465;50.862;6.220;2023-07-20T13:00:32;2.00;;;1.80;;
74904;SDS011;63465;50.862;6.220;2023-07-20T13:02:57;2.00;;;1.90;;
74904;SDS011;63465;50.862;6.220;2023-07-20T13:05:23;2.20;;;1.97;;
74904;SDS011;63465;50.862;6.220;2023-07-20T13:07:48;1.90;;;1.80;;
74904;SDS011;63465;50.862;6.220;2023-07-20T13:10:14;2.20;;;2.10;;
74904;SDS011;63465;50.862;6.220;2023-07-20T13:12:39;2.10;;;1.80;;
74904;SDS011;63465;50.862;6.220;2023-07-20T13:15:05;1.97;;;1.80;;
74904;SDS011;63465;50.862;6.220;2023-07-20T13:17:32;1.80;;;1.70;;
74904;SDS011;63465;50.862;6.220;2023-07-20T13:19:58;6.50;;;1.67;;
74904;SDS011;63465;50.862;6.220;2023-07-20T13:22:24;1.87;;;1.50;;
74904;SDS011;63465;50.862;6.220;2023-07-20T13:24:49;2.47;;;2.10;;
74904;SDS011;63465;50.862;6.220;2023-07-20T13:27:15;1.73;;;1.63;;
74904;SDS011;63465;50.862;6.220;2023-07-20T13:29:41;1.17;;;1.17;;
74904;SDS011;63465;50.862;6.220;2023-07-20T13:32:07;1.30;;;1.20;;
74904;SDS011;63465;50.862;6.220;2023-07-20T13:34:32;1.20;;;1.20;;
74904;SDS011;63465;50.862;6.220;2023-07-20T13:36:58;1.17;;;1.17;;
74904;SDS011;63465;50.862;6.220;2023-07-20T13:39:23;2.50;;;1.40;;
74904;SDS011;63465;50.862;6.220;2023-07-20T13:41:51;1.97;;;1.60;;
74904;SDS011;63465;50.862;6.220;2023-07-20T13:44:16;2.50;;;1.53;;
74904;SDS011;63465;50.862;6.220;2023-07-20T13:46:41;3.30;;;1.70;;
74904;SDS011;63465;50.862;6.220;2023-07-20T13:49:07;1.50;;;1.40;;
74904;SDS011;63465;50.862;6.220;2023-07-20T13:51:32;3.77;;;2.00;;
74904;SDS011;63465;50.862;6.220;2023-07-20T13:53:57;1.67;;;1.57;;
74904;SDS011;63465;50.862;6.220;2023-07-20T13:56:23;4.53;;;2.20;;
74904;SDS011;63465;50.862;6.220;2023-07-20T13:58:49;2.30;;;1.70;;
74904;SDS011;63465;50.862;6.220;2023-07-20T14:01:15;1.73;;;1.60;;
74904;SDS011;63465;50.862;6.220;2023-07-20T14:03:41;2.20;;;2.10;;
74904;SDS011;63465;50.862;6.220;2023-07-20T14:06:06;1.73;;;1.57;;
74904;SDS011;63465;50.862;6.220;2023-07-20T14:08:31;1.63;;;1.50;;
74904;SDS011;63465;50.862;6.220;2023-07-20T14:10:57;1.70;;;1.60;;
74904;SDS011;63465;50.862;6.220;2023-07-20T14:13:22;2.57;;;1.70;;
74904;SDS011;63465;50.862;6.220;2023-07-20T14:15:47;2.90;;;1.60;;
74904;SDS011;63465;50.862;6.220;2023-07-20T14:18:15;1.80;;;1.70;;
74904;SDS011;63465;50.862;6.220;2023-07-20T14:20:40;1.53;;;1.40;;
74904;SDS011;63465;50.862;6.220;2023-07-20T14:23:06;1.37;;;1.20;;
74904;SDS011;63465;50.862;6.220;2023-07-20T14:25:31;3.93;;;1.50;;
74904;SDS011;63465;50.862;6.220;2023-07-20T14:27:57;1.40;;;1.30;;
74904;SDS011;63465;50.862;6.220;2023-07-20T14:30:23;1.40;;;1.30;;
74904;SDS011;63465;50.862;6.220;2023-07-20T14:32:48;4.40;;;1.50;;
74904;SDS011;63465;50.862;6.220;2023-07-20T14:35:13;1.30;;;1.20;;
74904;SDS011;63465;50.862;6.220;2023-07-20T14:37:39;1.40;;;1.30;;
74904;SDS011;63465;50.862;6.220;2023-07-20T14:40:04;1.10;;;1.10;;
74904;SDS011;63465;50.862;6.220;2023-07-20T14:42:30;2.07;;;1.50;;
74904;SDS011;63465;50.862;6.220;2023-07-20T14:44:57;2.40;;;1.30;;
74904;SDS011;63465;50.862;6.220;2023-07-20T14:47:22;1.93;;;1.67;;
74904;SDS011;63465;50.862;6.220;2023-07-20T14:49:47;3.43;;;1.50;;
74904;SDS011;63465;50.862;6.220;2023-07-20T14:52:13;4.70;;;1.57;;
74904;SDS011;63465;50.862;6.220;2023-07-20T14:54:38;4.83;;;1.77;;